Time;durP1;ratioP1;P1;durP2;ratioP2;P2;SDS_P1;SDS_P2;PMS_P1;PMS_P2;Temp;Humidity;BMP_temperature;BMP_pressure;BME280_temperature;BME280_humidity;BME280_pressure;Samples;Min_cycle;Max_cycle;Signal;HPM_P1;HPM_P2
2021/06/27 00:00:40;;;;;;;0.40;0.30;;;11.10;99.90;;;;;;5065760;28;20577;-84
2021/06/27 00:03:09;;;;;;;0.80;0.20;;;11.20;99.90;;;;;;5050648;28;20386;-85
2021/06/27 00:05:37;;;;;;;0.22;0.22;;;11.20;99.90;;;;;;5057431;28;20456;-82
2021/06/27 00:08:06;;;;;;;0.30;0.20;;;11.30;99.90;;;;;;5056620;28;20428;-85
2021/06/27 00:10:38;;;;;;;0.40;0.25;;;11.40;99.90;;;;;;5054741;28;20469;-83
2021/06/27 00:13:07;;;;;;;0.45;0.30;;;11.50;99.90;;;;;;5070526;28;20462;-86
2021/06/27 00:15:47;;;;;;;0.70;0.30;;;11.60;99.90;;;;;;5063176;28;20948;-85
2021/06/27 00:18:17;;;;;;;0.28;0.20;;;11.90;99.90;;;;;;5066455;28;20378;-84
2021/06/27 00:20:46;;;;;;;0.67;0.30;;;12.60;99.90;;;;;;5060568;28;20882;-84
2021/06/27 00:23:16;;;;;;;0.30;0.20;;;13.40;96.60;;;;;;5055162;28;20471;-84
2021/06/27 00:25:43;;;;;;;0.30;0.20;;;14.50;94.20;;;;;;5052532;28;20388;-84
2021/06/27 00:28:11;;;;;;;0.50;0.20;;;14.50;94.90;;;;;;5054788;28;20388;-86
2021/06/27 00:30:39;;;;;;;0.63;0.10;;;14.40;94.70;;;;;;5051174;28;20395;-83
2021/06/27 00:33:07;;;;;;;0.30;0.10;;;13.90;94.20;;;;;;5053760;28;20838;-88
2021/06/27 00:35:34;;;;;;;1.00;0.20;;;13.50;94.40;;;;;;5053046;28;20422;-87
2021/06/27 00:38:02;;;;;;;0.28;0.20;;;13.20;96.30;;;;;;5048362;28;20482;-88
2021/06/27 00:40:31;;;;;;;1.00;0.20;;;12.90;97.10;;;;;;5063131;28;21403;-85
2021/06/27 00:42:59;;;;;;;0.77;0.30;;;12.70;97.40;;;;;;5061791;28;20922;-88
2021/06/27 00:45:29;;;;;;;0.40;0.13;;;12.50;97.80;;;;;;5060543;28;21972;-88
2021/06/27 00:48:00;;;;;;;0.47;0.40;;;12.50;98.10;;;;;;5068061;28;20451;-89
2021/06/27 00:50:36;;;;;;;0.40;0.20;;;12.40;98.20;;;;;;5068497;28;20402;-88
2021/06/27 00:53:04;;;;;;;0.60;0.20;;;12.40;99.50;;;;;;5049401;28;20525;-88
2021/06/27 00:55:31;;;;;;;0.25;0.22;;;12.40;98.40;;;;;;5058081;28;20397;-88
2021/06/27 00:57:59;;;;;;;2.90;0.40;;;12.50;98.30;;;;;;5061455;28;20376;-86
2021/06/27 01:00:29;;;;;;;1.30;0.20;;;12.60;97.10;;;;;;5052711;28;20798;-85
2021/06/27 01:02:57;;;;;;;0.28;0.20;;;12.50;96.70;;;;;;5054078;28;20878;-84
2021/06/27 01:05:27;;;;;;;0.68;0.38;;;12.50;96.90;;;;;;5067748;28;20397;-85
2021/06/27 01:07:55;;;;;;;1.40;0.30;;;12.50;97.40;;;;;;5068266;28;20487;-84
2021/06/27 01:10:22;;;;;;;1.65;0.30;;;12.60;96.50;;;;;;5062354;28;20414;-85
2021/06/27 01:12:51;;;;;;;1.70;0.20;;;12.70;96.30;;;;;;5051621;28;20437;-81
2021/06/27 01:15:18;;;;;;;0.32;0.20;;;12.70;96.50;;;;;;5058400;28;20390;-84
2021/06/27 01:17:49;;;;;;;0.20;0.20;;;12.70;96.30;;;;;;5049105;28;20402;-83
2021/06/27 01:20:22;;;;;;;0.30;0.30;;;12.80;96.30;;;;;;5056821;28;20434;-83
2021/06/27 01:22:50;;;;;;;0.80;0.50;;;12.80;95.40;;;;;;5049337;28;20384;-83
2021/06/27 01:25:26;;;;;;;0.25;0.20;;;12.80;95.80;;;;;;5050479;28;20418;-84
2021/06/27 01:27:54;;;;;;;1.20;0.20;;;12.90;95.80;;;;;;5049448;28;20372;-84
2021/06/27 01:30:23;;;;;;;1.98;0.20;;;12.90;95.20;;;;;;5049269;28;20384;-83
2021/06/27 01:32:52;;;;;;;1.00;0.30;;;12.90;94.40;;;;;;5049353;28;20498;-83
2021/06/27 01:35:21;;;;;;;0.13;0.10;;;13.00;94.80;;;;;;5049446;28;20420;-82
2021/06/27 01:37:53;;;;;;;0.43;0.20;;;13.00;95.00;;;;;;5049118;28;20413;-84
2021/06/27 01:40:22;;;;;;;1.30;0.23;;;13.00;95.40;;;;;;5056531;28;20755;-83
2021/06/27 01:42:51;;;;;;;0.70;0.13;;;13.10;94.50;;;;;;5056514;28;20398;-80
2021/06/27 01:45:24;;;;;;;0.30;0.20;;;13.10;93.60;;;;;;5062679;28;20758;-82
2021/06/27 01:48:03;;;;;;;0.20;0.20;;;13.10;94.20;;;;;;5088538;28;20372;-81
2021/06/27 01:50:32;;;;;;;0.30;0.30;;;13.10;93.90;;;;;;5054474;28;20452;-83
2021/06/27 01:53:00;;;;;;;0.17;0.17;;;13.20;93.90;;;;;;5049494;28;20478;-82
2021/06/27 01:55:28;;;;;;;0.90;0.30;;;13.20;93.80;;;;;;5059444;28;20384;-82
2021/06/27 01:57:56;;;;;;;0.75;0.30;;;13.30;93.30;;;;;;5049005;28;20726;-85
2021/06/27 02:00:26;;;;;;;0.68;0.20;;;13.30;91.60;;;;;;5054620;28;20879;-82
2021/06/27 02:02:53;;;;;;;0.33;0.23;;;13.40;93.00;;;;;;5047982;28;20819;-85
2021/06/27 02:05:20;;;;;;;0.90;0.30;;;13.40;92.80;;;;;;5048800;28;20870;-83
2021/06/27 02:07:48;;;;;;;0.57;0.30;;;13.50;93.20;;;;;;5057591;28;20382;-83
2021/06/27 02:10:22;;;;;;;0.45;0.20;;;13.50;92.50;;;;;;5048882;28;20442;-82
2021/06/27 02:12:51;;;;;;;0.45;0.20;;;13.50;91.00;;;;;;5048223;28;20391;-83
2021/06/27 02:15:19;;;;;;;0.50;0.25;;;13.60;92.00;;;;;;5054144;28;20395;-84
2021/06/27 02:18:08;;;;;;;0.57;0.20;;;13.80;90.90;;;;;;5059835;28;20468;-82
2021/06/27 02:20:36;;;;;;;0.30;0.30;;;13.80;90.50;;;;;;5071470;28;20385;-82
2021/06/27 02:23:03;;;;;;;0.20;0.20;;;13.80;90.30;;;;;;5066447;28;20391;-83
2021/06/27 02:25:30;;;;;;;1.00;0.30;;;13.80;90.80;;;;;;5061981;28;20391;-81
2021/06/27 02:27:57;;;;;;;1.00;0.32;;;13.80;91.00;;;;;;5062427;28;20393;-82
2021/06/27 02:30:24;;;;;;;0.63;0.40;;;14.00;92.00;;;;;;5066396;28;20518;-82
2021/06/27 02:32:51;;;;;;;0.50;0.30;;;14.00;90.80;;;;;;5052926;28;20435;-81
2021/06/27 02:35:18;;;;;;;0.60;0.20;;;14.00;86.30;;;;;;5053641;28;20391;-83
2021/06/27 02:37:45;;;;;;;1.10;0.30;;;14.00;90.10;;;;;;5052916;28;20415;-80
2021/06/27 02:40:13;;;;;;;1.92;0.40;;;14.00;88.70;;;;;;5059089;28;20392;-82
2021/06/27 02:42:41;;;;;;;0.40;0.40;;;13.90;85.10;;;;;;5066994;28;20406;-82
2021/06/27 02:45:10;;;;;;;1.40;0.40;;;14.00;88.70;;;;;;5071434;28;20373;-82
2021/06/27 02:47:37;;;;;;;0.43;0.30;;;14.10;88.90;;;;;;5054730;28;20384;-81
2021/06/27 02:50:14;;;;;;;2.27;0.50;;;14.10;87.50;;;;;;5054770;28;20379;-83
2021/06/27 02:52:42;;;;;;;1.05;0.45;;;14.10;89.40;;;;;;5076015;28;20396;-81
2021/06/27 02:55:11;;;;;;;0.68;0.50;;;14.10;87.00;;;;;;5071637;28;20391;-81
2021/06/27 02:57:39;;;;;;;0.50;0.30;;;14.10;87.70;;;;;;5071733;28;20378;-81
2021/06/27 03:00:09;;;;;;;1.17;0.60;;;14.20;89.20;;;;;;5060427;28;20487;-81
2021/06/27 03:02:36;;;;;;;0.60;0.50;;;14.20;89.00;;;;;;5055278;28;20372;-81
2021/06/27 03:05:03;;;;;;;1.73;0.40;;;14.30;87.50;;;;;;5053056;28;20459;-80
2021/06/27 03:07:30;;;;;;;0.63;0.30;;;14.40;88.60;;;;;;5052109;28;20380;-80
2021/06/27 03:09:57;;;;;;;1.70;0.40;;;14.40;88.00;;;;;;5052251;28;20422;-81
2021/06/27 03:12:24;;;;;;;2.13;0.35;;;14.50;90.20;;;;;;5063066;28;20430;-81
2021/06/27 03:14:51;;;;;;;1.30;0.40;;;14.60;87.50;;;;;;5054269;28;20485;-81
2021/06/27 03:17:18;;;;;;;0.87;0.53;;;14.50;85.00;;;;;;5052472;28;20398;-81
2021/06/27 03:19:45;;;;;;;1.10;0.40;;;14.60;87.20;;;;;;5054498;28;20456;-81
2021/06/27 03:22:12;;;;;;;0.95;0.57;;;14.60;87.20;;;;;;5055343;28;20959;-80
2021/06/27 03:24:39;;;;;;;0.25;0.25;;;14.70;88.40;;;;;;5059461;28;20402;-79
2021/06/27 03:27:06;;;;;;;0.55;0.35;;;14.70;86.30;;;;;;5068580;28;20749;-81
2021/06/27 03:29:33;;;;;;;0.70;0.40;;;14.80;87.40;;;;;;5056923;28;20422;-80
2021/06/27 03:32:00;;;;;;;0.75;0.40;;;14.80;85.50;;;;;;5062150;28;20894;-81
2021/06/27 03:34:27;;;;;;;2.20;0.30;;;14.80;85.60;;;;;;5057346;28;20495;-80
2021/06/27 03:36:54;;;;;;;0.75;0.50;;;14.80;86.80;;;;;;5071634;28;20465;-80
2021/06/27 03:39:23;;;;;;;0.57;0.43;;;14.90;85.90;;;;;;5062061;28;20387;-81
2021/06/27 03:41:53;;;;;;;0.90;0.30;;;14.90;85.10;;;;;;5057785;28;20729;-81
2021/06/27 03:44:21;;;;;;;1.23;0.40;;;14.90;85.20;;;;;;5081094;28;20829;-80
2021/06/27 03:46:48;;;;;;;0.70;0.30;;;14.90;85.00;;;;;;5081694;28;20376;-80
2021/06/27 03:49:15;;;;;;;0.68;0.35;;;15.00;84.10;;;;;;5055029;28;20472;-80
2021/06/27 03:51:43;;;;;;;0.63;0.40;;;15.00;83.90;;;;;;5062289;28;20415;-80
2021/06/27 03:54:10;;;;;;;0.40;0.40;;;15.00;84.80;;;;;;5071293;28;20394;-81
2021/06/27 03:56:37;;;;;;;0.97;0.50;;;15.10;82.30;;;;;;5071222;28;20383;-80
2021/06/27 03:59:06;;;;;;;0.60;0.40;;;15.10;78.90;;;;;;5067144;28;20400;-81
2021/06/27 04:01:34;;;;;;;0.40;0.40;;;15.10;80.90;;;;;;5057092;28;20457;-79
2021/06/27 04:04:02;;;;;;;0.60;0.50;;;15.10;76.40;;;;;;5057973;28;20387;-80
2021/06/27 04:06:30;;;;;;;1.73;0.50;;;15.10;77.40;;;;;;5060792;28;20824;-80
2021/06/27 04:08:57;;;;;;;0.88;0.50;;;15.10;80.00;;;;;;5064924;28;20472;-80
2021/06/27 04:11:24;;;;;;;0.80;0.60;;;15.00;83.90;;;;;;5066231;28;20414;-80
2021/06/27 04:13:51;;;;;;;2.10;0.80;;;15.00;85.80;;;;;;5060251;28;20448;-81
2021/06/27 04:16:18;;;;;;;1.40;0.60;;;15.00;85.30;;;;;;5073231;28;20436;-80
2021/06/27 04:18:44;;;;;;;0.50;0.50;;;14.90;84.10;;;;;;5079919;28;20439;-80
2021/06/27 04:21:11;;;;;;;3.17;0.60;;;15.00;79.30;;;;;;5052912;28;20392;-80
2021/06/27 04:23:40;;;;;;;0.90;0.50;;;15.10;80.10;;;;;;5050130;28;20398;-80
2021/06/27 04:26:07;;;;;;;0.75;0.57;;;15.00;82.90;;;;;;5054911;28;20395;-80
2021/06/27 04:28:34;;;;;;;0.90;0.50;;;15.00;82.70;;;;;;5052545;28;20394;-81
2021/06/27 04:31:01;;;;;;;1.00;0.50;;;15.00;85.00;;;;;;5055732;28;20778;-80
2021/06/27 04:33:28;;;;;;;2.28;0.50;;;15.00;85.20;;;;;;5052145;28;20432;-81
2021/06/27 04:35:55;;;;;;;0.77;0.40;;;15.00;80.50;;;;;;5053913;28;20466;-79
2021/06/27 04:38:24;;;;;;;1.65;0.40;;;15.00;79.30;;;;;;5060511;28;20416;-82
2021/06/27 04:40:52;;;;;;;0.90;0.60;;;15.00;80.00;;;;;;5053805;28;20801;-81
2021/06/27 04:43:19;;;;;;;1.42;0.50;;;15.00;82.00;;;;;;5053738;28;20399;-82
2021/06/27 04:45:47;;;;;;;0.80;0.43;;;14.90;83.40;;;;;;5053840;28;20394;-81
2021/06/27 04:48:14;;;;;;;0.57;0.50;;;14.90;81.10;;;;;;5062475;28;20399;-81
2021/06/27 04:50:41;;;;;;;2.55;0.70;;;14.90;79.90;;;;;;5062249;28;20394;-81
2021/06/27 04:53:13;;;;;;;1.60;0.60;;;14.90;81.30;;;;;;5069427;28;20441;-82
2021/06/27 04:55:41;;;;;;;0.60;0.50;;;14.90;81.20;;;;;;5052604;28;20445;-81
2021/06/27 04:58:08;;;;;;;0.50;0.50;;;14.80;81.50;;;;;;5049939;28;20449;-80
2021/06/27 05:00:35;;;;;;;1.98;0.70;;;14.80;83.60;;;;;;5067695;28;20460;-81
2021/06/27 05:03:02;;;;;;;1.33;0.82;;;14.80;85.20;;;;;;5066343;28;20397;-81
2021/06/27 05:05:29;;;;;;;0.80;0.60;;;14.70;86.00;;;;;;5060539;28;20396;-82
2021/06/27 05:07:56;;;;;;;1.08;0.60;;;14.70;86.40;;;;;;5052595;28;20392;-80
2021/06/27 05:10:24;;;;;;;1.08;0.50;;;14.70;82.90;;;;;;5068039;28;20864;-80
2021/06/27 05:12:51;;;;;;;0.70;0.40;;;14.70;83.90;;;;;;5064635;28;22874;-81
2021/06/27 05:15:18;;;;;;;1.25;0.55;;;14.70;81.50;;;;;;5061482;28;20399;-80
2021/06/27 05:17:44;;;;;;;0.90;0.60;;;14.70;82.10;;;;;;5069917;28;20838;-79
2021/06/27 05:20:12;;;;;;;0.50;0.43;;;14.70;85.90;;;;;;5059291;28;20870;-80
2021/06/27 05:22:40;;;;;;;1.48;0.47;;;14.60;86.30;;;;;;5060836;28;20383;-80
2021/06/27 05:25:08;;;;;;;0.52;0.52;;;14.50;85.90;;;;;;5064757;28;20415;-80
2021/06/27 05:27:35;;;;;;;1.90;0.47;;;14.50;85.70;;;;;;5053858;28;20754;-80
2021/06/27 05:30:02;;;;;;;1.60;0.70;;;14.50;85.30;;;;;;5060220;28;20802;-81
2021/06/27 05:32:29;;;;;;;0.90;0.70;;;14.40;87.70;;;;;;5069208;28;20512;-81
2021/06/27 05:34:56;;;;;;;2.85;0.70;;;14.40;85.50;;;;;;5069053;28;20425;-80
2021/06/27 05:37:24;;;;;;;1.70;1.17;;;14.40;83.70;;;;;;5067922;28;20426;-80
2021/06/27 05:39:51;;;;;;;1.50;1.02;;;14.30;85.60;;;;;;5066876;28;20390;-80
2021/06/27 05:42:19;;;;;;;1.55;0.90;;;14.30;87.00;;;;;;5057118;28;20518;-80
2021/06/27 05:44:47;;;;;;;1.20;1.10;;;14.30;84.30;;;;;;5067005;28;20469;-80
2021/06/27 05:47:14;;;;;;;1.40;1.30;;;14.40;85.10;;;;;;5055860;28;20493;-80
2021/06/27 05:49:41;;;;;;;3.13;2.75;;;14.40;86.50;;;;;;5058424;28;20413;-80
2021/06/27 05:52:08;;;;;;;1.77;1.02;;;14.30;84.70;;;;;;5051653;28;20388;-80
2021/06/27 05:54:35;;;;;;;1.20;0.60;;;14.30;84.70;;;;;;5052850;28;20415;-79
2021/06/27 05:57:03;;;;;;;0.77;0.65;;;14.30;85.10;;;;;;5053048;28;20910;-79
2021/06/27 05:59:29;;;;;;;0.60;0.50;;;14.20;84.80;;;;;;5063938;28;20403;-80
2021/06/27 06:01:56;;;;;;;0.73;0.50;;;14.10;87.90;;;;;;5064910;28;20377;-80
2021/06/27 06:04:23;;;;;;;1.80;0.95;;;14.00;90.60;;;;;;5068962;28;20402;-80
2021/06/27 06:06:50;;;;;;;0.80;0.80;;;13.90;92.40;;;;;;5069047;28;20916;-80
2021/06/27 06:09:17;;;;;;;1.00;0.70;;;13.80;92.70;;;;;;5068922;28;20387;-80
2021/06/27 06:11:46;;;;;;;1.70;0.77;;;13.80;92.60;;;;;;5062219;28;20820;-79
2021/06/27 06:14:13;;;;;;;0.60;0.57;;;13.70;95.10;;;;;;5066132;28;20916;-79
2021/06/27 06:16:41;;;;;;;2.35;0.60;;;13.60;95.60;;;;;;5068337;28;20463;-80
2021/06/27 06:19:08;;;;;;;1.95;0.90;;;13.50;96.20;;;;;;5048799;28;20372;-79
2021/06/27 06:21:35;;;;;;;1.10;0.70;;;13.40;96.40;;;;;;5050034;28;20516;-79
2021/06/27 06:24:02;;;;;;;2.23;0.53;;;13.40;95.60;;;;;;5049682;28;20467;-79
2021/06/27 06:26:29;;;;;;;1.50;0.70;;;13.30;95.30;;;;;;5055447;28;21122;-79
2021/06/27 06:28:56;;;;;;;1.58;0.80;;;13.20;95.50;;;;;;5056949;28;20437;-80
2021/06/27 06:31:23;;;;;;;3.50;1.10;;;13.20;97.90;;;;;;5051279;28;20388;-80
2021/06/27 06:33:50;;;;;;;1.80;1.30;;;13.20;99.20;;;;;;5051173;28;20409;-80
2021/06/27 06:36:17;;;;;;;2.15;1.15;;;13.10;96.80;;;;;;5050089;28;20388;-80
2021/06/27 06:38:44;;;;;;;1.20;0.77;;;13.00;97.90;;;;;;5048938;28;20695;-79
2021/06/27 06:41:11;;;;;;;3.10;1.10;;;13.00;98.00;;;;;;5057673;28;20390;-79
2021/06/27 06:43:38;;;;;;;4.55;1.20;;;12.80;98.40;;;;;;5064436;28;20378;-80
2021/06/27 06:46:05;;;;;;;1.30;1.17;;;12.70;99.30;;;;;;5052201;28;20407;-80
2021/06/27 06:48:32;;;;;;;1.30;1.20;;;12.60;99.90;;;;;;5051481;28;20382;-79
2021/06/27 06:50:59;;;;;;;2.75;2.42;;;12.50;99.90;;;;;;5068445;28;20370;-79
2021/06/27 06:53:27;;;;;;;2.80;1.75;;;12.40;99.90;;;;;;5056414;28;20422;-80
2021/06/27 06:55:56;;;;;;;2.13;1.92;;;12.30;99.90;;;;;;5048359;28;20429;-79
2021/06/27 06:58:30;;;;;;;2.00;1.90;;;12.20;99.90;;;;;;5066010;28;20378;-79
2021/06/27 07:01:01;;;;;;;3.17;1.70;;;12.10;99.90;;;;;;5071823;28;20370;-80
2021/06/27 07:03:30;;;;;;;1.70;1.33;;;12.00;99.90;;;;;;5071991;28;20733;-79
2021/06/27 07:05:59;;;;;;;1.50;1.40;;;12.00;99.90;;;;;;5059930;28;20388;-80
2021/06/27 07:08:30;;;;;;;1.80;1.50;;;11.90;99.90;;;;;;5064900;28;20389;-79
2021/06/27 07:10:57;;;;;;;1.88;1.40;;;11.80;99.90;;;;;;5069087;28;20381;-79
2021/06/27 07:13:25;;;;;;;2.88;1.30;;;11.80;99.90;;;;;;5072231;28;20394;-79
2021/06/27 07:15:52;;;;;;;2.58;1.88;;;11.70;99.90;;;;;;5056925;28;20435;-79
2021/06/27 07:18:19;;;;;;;2.10;1.80;;;11.60;99.90;;;;;;5051920;28;20950;-80
2021/06/27 07:20:46;;;;;;;2.05;1.80;;;11.60;99.90;;;;;;5052028;28;20386;-79
2021/06/27 07:23:13;;;;;;;1.75;1.50;;;11.60;99.90;;;;;;5051740;28;20885;-80
2021/06/27 07:25:40;;;;;;;2.45;1.90;;;11.50;99.90;;;;;;5059416;28;20406;-79
2021/06/27 07:28:07;;;;;;;4.25;2.38;;;11.50;99.90;;;;;;5057753;28;20453;-80
2021/06/27 07:30:34;;;;;;;6.78;3.70;;;11.50;99.90;;;;;;5067891;28;20889;-80
2021/06/27 07:33:01;;;;;;;7.88;4.88;;;11.60;99.90;;;;;;5058991;28;20511;-80
2021/06/27 07:35:28;;;;;;;7.38;5.95;;;11.60;99.90;;;;;;5063649;28;20398;-80
2021/06/27 07:37:55;;;;;;;11.30;7.15;;;11.60;99.90;;;;;;5067682;28;20423;-78
2021/06/27 07:40:22;;;;;;;9.25;7.07;;;11.50;99.90;;;;;;5058584;28;20411;-79
2021/06/27 07:42:50;;;;;;;10.65;8.57;;;11.40;99.90;;;;;;5062218;28;20488;-78
2021/06/27 07:45:17;;;;;;;24.48;18.27;;;11.30;99.90;;;;;;5055983;28;20759;-79
2021/06/27 07:47:45;;;;;;;16.60;13.80;;;11.20;99.90;;;;;;5053080;28;20384;-80
2021/06/27 07:50:13;;;;;;;30.77;24.77;;;11.00;99.90;;;;;;5061238;28;20385;-80
2021/06/27 07:52:40;;;;;;;19.10;14.80;;;11.00;99.90;;;;;;5071706;28;20374;-80
2021/06/27 07:55:08;;;;;;;15.33;12.63;;;10.90;99.90;;;;;;5072826;28;20436;-79
2021/06/27 07:57:35;;;;;;;24.83;17.38;;;10.80;99.90;;;;;;5069976;28;20388;-81
2021/06/27 08:00:04;;;;;;;22.02;14.80;;;10.70;99.90;;;;;;5056210;28;20426;-79
2021/06/27 08:02:32;;;;;;;17.95;13.18;;;10.70;99.90;;;;;;5051109;28;20387;-80
2021/06/27 08:04:59;;;;;;;23.98;16.23;;;10.60;99.90;;;;;;5059105;28;20473;-79
2021/06/27 08:07:26;;;;;;;24.17;15.73;;;10.60;99.90;;;;;;5060440;28;20395;-78
2021/06/27 08:09:53;;;;;;;23.88;15.57;;;10.50;99.90;;;;;;5052660;28;20475;-79
2021/06/27 08:12:20;;;;;;;22.95;16.98;;;10.50;99.90;;;;;;5050186;28;20380;-78
2021/06/27 08:14:47;;;;;;;14.27;11.43;;;10.50;99.90;;;;;;5062738;28;20418;-79
2021/06/27 08:17:14;;;;;;;12.05;8.82;;;10.50;99.90;;;;;;5069401;28;20385;-78
2021/06/27 08:19:41;;;;;;;9.05;6.35;;;10.50;99.90;;;;;;5051875;28;20762;-78
2021/06/27 08:22:08;;;;;;;6.73;5.70;;;10.40;99.90;;;;;;5055034;28;20396;-79
2021/06/27 08:24:35;;;;;;;6.53;5.10;;;10.40;99.90;;;;;;5055989;28;20402;-79
2021/06/27 08:27:02;;;;;;;7.22;6.03;;;10.30;99.90;;;;;;5053299;28;20847;-79
2021/06/27 08:29:29;;;;;;;9.10;6.32;;;10.20;99.90;;;;;;5051485;28;20482;-81
2021/06/27 08:31:56;;;;;;;10.23;7.30;;;10.10;99.90;;;;;;5049993;28;20384;-80
2021/06/27 08:34:23;;;;;;;10.00;8.15;;;10.10;99.90;;;;;;5050527;28;20403;-79
2021/06/27 08:36:50;;;;;;;14.68;10.00;;;10.10;99.90;;;;;;5058267;28;20386;-80
2021/06/27 08:39:17;;;;;;;12.80;9.05;;;10.10;99.90;;;;;;5055400;28;20459;-79
2021/06/27 08:41:44;;;;;;;7.77;6.80;;;10.00;99.90;;;;;;5057156;28;20526;-79
2021/06/27 08:44:14;;;;;;;10.65;7.05;;;10.00;99.90;;;;;;5054348;28;20403;-80
2021/06/27 08:46:43;;;;;;;8.02;5.60;;;9.90;99.90;;;;;;5050045;28;20407;-80
2021/06/27 08:49:12;;;;;;;7.20;5.43;;;9.90;99.90;;;;;;5056133;28;20409;-80
2021/06/27 08:51:40;;;;;;;7.22;4.95;;;9.90;99.90;;;;;;5049282;28;21317;-79
2021/06/27 08:54:11;;;;;;;4.97;4.13;;;9.90;99.90;;;;;;5049415;28;20862;-78
2021/06/27 08:56:40;;;;;;;5.82;4.60;;;9.90;99.90;;;;;;5066788;28;20385;-79
2021/06/27 08:59:07;;;;;;;6.15;4.70;;;9.90;99.90;;;;;;5057213;28;20488;-81
2021/06/27 09:01:34;;;;;;;5.93;4.65;;;9.80;99.90;;;;;;5050969;28;20386;-80
2021/06/27 09:04:01;;;;;;;6.40;4.45;;;9.80;99.90;;;;;;5057120;28;20389;-79
2021/06/27 09:06:30;;;;;;;6.40;4.93;;;9.80;99.90;;;;;;5052065;28;20435;-79
2021/06/27 09:09:14;;;;;;;7.90;5.00;;;9.70;99.90;;;;;;5063880;28;20527;-79
2021/06/27 09:12:03;;;;;;;9.10;7.03;;;9.70;99.90;;;;;;5069247;28;20391;-79
2021/06/27 09:14:43;;;;;;;12.38;10.15;;;9.60;99.90;;;;;;5052492;28;20412;-79
2021/06/27 09:17:15;;;;;;;89.75;67.63;;;9.70;99.90;;;;;;5059008;28;20762;-80
2021/06/27 09:20:03;;;;;;;50.30;38.85;;;9.60;99.90;;;;;;5053583;28;20454;-80
2021/06/27 09:22:35;;;;;;;44.83;34.05;;;9.60;99.90;;;;;;5054972;28;20381;-79
2021/06/27 09:25:26;;;;;;;40.75;31.38;;;9.70;99.90;;;;;;5053393;28;20821;-81
2021/06/27 09:28:10;;;;;;;26.05;20.10;;;9.70;99.90;;;;;;5049586;28;20384;-79
2021/06/27 09:30:44;;;;;;;12.77;8.93;;;9.80;99.90;;;;;;5048215;28;20913;-78
2021/06/27 09:33:13;;;;;;;39.85;26.63;;;9.90;99.90;;;;;;5051253;28;20465;-79
2021/06/27 09:35:49;;;;;;;10.18;7.28;;;10.00;99.90;;;;;;5062632;28;20398;-80
2021/06/27 09:38:20;;;;;;;8.50;6.00;;;10.00;99.90;;;;;;5068923;28;20472;-81
2021/06/27 09:40:50;;;;;;;9.27;4.97;;;10.10;99.90;;;;;;5066315;28;20382;-81
2021/06/27 09:43:19;;;;;;;7.53;5.00;;;10.10;99.90;;;;;;5049209;28;20758;-82
2021/06/27 09:45:49;;;;;;;7.03;4.90;;;10.10;99.90;;;;;;5050149;28;20382;-79
2021/06/27 09:48:17;;;;;;;5.65;4.50;;;10.20;99.90;;;;;;5058230;28;20478;-80
2021/06/27 09:50:44;;;;;;;7.78;4.60;;;10.20;99.90;;;;;;5061821;28;21215;-80
2021/06/27 09:53:30;;;;;;;6.82;4.50;;;10.20;99.90;;;;;;5061248;28;20489;-80
2021/06/27 09:55:58;;;;;;;6.65;4.20;;;10.10;99.90;;;;;;5047288;28;20482;-79
2021/06/27 09:58:26;;;;;;;5.55;4.30;;;10.00;99.90;;;;;;5045957;28;20399;-80
2021/06/27 10:00:53;;;;;;;7.93;4.30;;;9.90;99.90;;;;;;5048443;28;20442;-80
2021/06/27 10:03:22;;;;;;;5.75;4.70;;;9.90;99.90;;;;;;5049647;28;20403;-80
2021/06/27 10:05:49;;;;;;;6.15;4.60;;;9.80;99.90;;;;;;5065226;28;20397;-80
2021/06/27 10:08:29;;;;;;;6.43;4.28;;;9.70;99.90;;;;;;5061590;28;20405;-80
2021/06/27 10:11:18;;;;;;;8.23;5.80;;;9.60;99.90;;;;;;5045281;28;20392;-80
2021/06/27 10:13:54;;;;;;;11.73;5.60;;;9.60;99.90;;;;;;5050079;28;20415;-80
2021/06/27 10:16:34;;;;;;;9.80;5.93;;;9.60;99.90;;;;;;5057407;28;20397;-79
2021/06/27 10:19:02;;;;;;;8.95;6.10;;;9.50;99.90;;;;;;5055078;28;20400;-80
2021/06/27 10:21:31;;;;;;;12.23;6.53;;;9.50;99.90;;;;;;5056465;28;20418;-80
2021/06/27 10:23:58;;;;;;;10.40;6.13;;;9.50;99.90;;;;;;5044863;28;20387;-81
2021/06/27 10:26:27;;;;;;;10.77;6.13;;;9.40;99.90;;;;;;5050151;28;20386;-79
2021/06/27 10:28:55;;;;;;;9.68;6.30;;;9.30;99.90;;;;;;5063239;28;20471;-80
2021/06/27 10:31:24;;;;;;;10.70;6.43;;;9.30;99.90;;;;;;5053824;28;20386;-81
2021/06/27 10:33:52;;;;;;;8.68;5.85;;;9.20;99.90;;;;;;5053231;28;20419;-81
2021/06/27 10:36:34;;;;;;;7.70;5.80;;;9.20;99.90;;;;;;5052464;28;20379;-81
2021/06/27 10:39:07;;;;;;;8.98;5.25;;;9.20;99.90;;;;;;5052354;28;20471;-82
2021/06/27 10:41:59;;;;;;;8.25;5.45;;;9.20;99.90;;;;;;5055039;28;20441;-80
2021/06/27 10:44:28;;;;;;;8.32;5.30;;;9.20;99.90;;;;;;5064521;28;20890;-80
2021/06/27 10:46:58;;;;;;;6.82;5.43;;;9.10;99.90;;;;;;5059888;28;20398;-80
2021/06/27 10:49:32;;;;;;;7.60;5.38;;;9.20;99.90;;;;;;5056810;28;20750;-79
2021/06/27 10:52:12;;;;;;;7.35;5.40;;;9.10;99.90;;;;;;5059388;28;20383;-80
2021/06/27 10:54:41;;;;;;;8.30;5.40;;;9.10;99.90;;;;;;5055998;28;20413;-80
2021/06/27 10:57:10;;;;;;;7.75;5.25;;;9.10;99.90;;;;;;5067225;28;20386;-80
2021/06/27 10:59:40;;;;;;;7.22;5.15;;;9.00;99.90;;;;;;5070701;28;20405;-81
2021/06/27 11:02:17;;;;;;;7.93;5.00;;;9.00;99.90;;;;;;5058809;28;20391;-80
2021/06/27 11:04:49;;;;;;;6.25;4.95;;;9.00;99.90;;;;;;5056565;28;20383;-80
2021/06/27 11:07:38;;;;;;;6.22;4.80;;;9.00;99.90;;;;;;5077944;28;20415;-79
2021/06/27 11:10:20;;;;;;;6.85;4.32;;;9.00;99.90;;;;;;5074032;28;20914;-80
2021/06/27 11:12:59;;;;;;;5.80;4.30;;;9.00;99.90;;;;;;5069648;28;20374;-80
2021/06/27 11:15:38;;;;;;;4.57;3.40;;;9.00;99.90;;;;;;5056852;28;20410;-80
2021/06/27 11:18:10;;;;;;;3.90;3.03;;;9.00;99.90;;;;;;5051542;28;20395;-80
2021/06/27 11:20:54;;;;;;;6.13;3.08;;;9.10;99.90;;;;;;5055525;28;20396;-80
2021/06/27 11:23:48;;;;;;;3.65;2.90;;;9.10;99.90;;;;;;5070136;28;20442;-79
2021/06/27 11:26:39;;;;;;;4.75;3.25;;;9.10;99.90;;;;;;5048281;28;20415;-80
2021/06/27 11:29:21;;;;;;;3.78;3.10;;;9.10;99.90;;;;;;5052029;28;20396;-81
2021/06/27 11:32:15;;;;;;;3.20;2.80;;;9.10;99.90;;;;;;5060235;28;20474;-80
2021/06/27 11:34:56;;;;;;;4.03;2.90;;;9.00;99.90;;;;;;5061639;28;20452;-80
2021/06/27 11:37:23;;;;;;;4.90;3.00;;;9.00;99.90;;;;;;5051472;28;20394;-80
2021/06/27 11:40:03;;;;;;;3.65;2.88;;;8.90;99.90;;;;;;5065222;28;20435;-80
2021/06/27 11:42:29;;;;;;;3.30;2.80;;;8.90;99.90;;;;;;5062992;28;20413;-81
2021/06/27 11:45:07;;;;;;;4.55;2.88;;;8.90;99.90;;;;;;5059448;28;21342;-80
2021/06/27 11:47:43;;;;;;;3.17;2.60;;;8.90;99.90;;;;;;5052688;28;20409;-80
2021/06/27 11:50:29;;;;;;;2.95;2.55;;;8.90;99.90;;;;;;5060215;28;20470;-79
2021/06/27 11:52:57;;;;;;;2.75;2.40;;;8.90;99.90;;;;;;5052101;28;20423;-80
2021/06/27 11:55:30;;;;;;;3.10;2.50;;;8.90;99.90;;;;;;5065599;28;20432;-80
2021/06/27 11:57:57;;;;;;;4.07;2.75;;;8.90;99.90;;;;;;5053768;28;21184;-81
2021/06/27 12:00:40;;;;;;;2.88;2.55;;;8.90;99.90;;;;;;5051763;28;20405;-80
2021/06/27 12:03:12;;;;;;;2.83;2.60;;;8.90;99.90;;;;;;5059262;28;20760;-80
2021/06/27 12:05:40;;;;;;;3.28;2.90;;;8.90;99.90;;;;;;5057491;28;20429;-80
2021/06/27 12:08:11;;;;;;;5.13;2.83;;;8.80;99.90;;;;;;5062883;28;20427;-80
2021/06/27 12:10:40;;;;;;;3.97;2.70;;;8.80;99.90;;;;;;5055359;28;20810;-80
2021/06/27 12:13:10;;;;;;;2.90;2.60;;;8.70;99.90;;;;;;5056452;28;20918;-80
2021/06/27 12:15:47;;;;;;;3.40;2.72;;;8.70;99.90;;;;;;5051059;28;20391;-80
2021/06/27 12:18:22;;;;;;;3.63;2.38;;;8.70;99.90;;;;;;5050430;28;20386;-81
2021/06/27 12:21:05;;;;;;;3.03;2.72;;;8.70;99.90;;;;;;5053980;28;20845;-80
2021/06/27 12:23:38;;;;;;;2.97;2.63;;;8.70;99.90;;;;;;5050732;28;20943;-80
2021/06/27 12:26:09;;;;;;;5.13;3.08;;;8.60;99.90;;;;;;5068058;28;20407;-80
2021/06/27 12:28:55;;;;;;;2.75;2.50;;;8.70;99.90;;;;;;5067396;28;20441;-80
2021/06/27 12:31:31;;;;;;;2.65;2.45;;;8.60;99.90;;;;;;5062081;28;20410;-80
2021/06/27 12:34:06;;;;;;;2.47;2.28;;;8.60;99.90;;;;;;5056665;28;20497;-80
2021/06/27 12:36:47;;;;;;;2.50;2.20;;;8.60;99.90;;;;;;5056950;28;20410;-81
2021/06/27 12:39:16;;;;;;;2.50;1.90;;;8.60;99.90;;;;;;5055711;28;20738;-80
2021/06/27 12:41:44;;;;;;;2.13;1.90;;;8.60;99.90;;;;;;5050560;28;20399;-81
2021/06/27 12:44:14;;;;;;;2.60;1.77;;;8.60;99.90;;;;;;5050330;28;20403;-81
2021/06/27 12:46:48;;;;;;;3.45;2.30;;;8.60;99.90;;;;;;5050883;28;20839;-80
2021/06/27 12:49:23;;;;;;;3.80;2.40;;;8.60;99.90;;;;;;5048378;28;20445;-80
2021/06/27 12:52:08;;;;;;;3.42;3.08;;;8.50;99.90;;;;;;5053071;28;20387;-80
2021/06/27 12:54:48;;;;;;;3.72;3.10;;;8.50;99.90;;;;;;5055816;28;20411;-80
2021/06/27 12:57:17;;;;;;;4.25;3.08;;;8.50;99.90;;;;;;5059796;28;20382;-81
2021/06/27 12:59:52;;;;;;;4.88;3.30;;;8.50;99.90;;;;;;5059748;28;20409;-80
2021/06/27 13:02:26;;;;;;;4.05;3.33;;;8.50;99.90;;;;;;5054766;28;20399;-80